sensor_id;sensor_type;location;lat;lon;timestamp;pressure;altitude;pressure_sealevel;temperature;humidity
62703;BME280;48766;50.446;18.128;2022-12-01T00:03:48;100303.67;;;1.23;73.65
62703;BME280;48766;50.446;18.128;2022-12-01T00:08:09;100301.54;;;1.26;66.59
62703;BME280;48766;50.446;18.128;2022-12-01T00:12:32;100299.22;;;1.26;66.74
62703;BME280;48766;50.446;18.128;2022-12-01T00:16:54;100296.94;;;1.25;66.53
62703;BME280;48766;50.446;18.128;2022-12-01T00:21:17;100294.42;;;1.26;66.18
62703;BME280;48766;50.446;18.128;2022-12-01T00:25:38;100291.89;;;1.26;67.24
62703;BME280;48766;50.446;18.128;2022-12-01T00:30:00;100290.69;;;1.29;66.08
62703;BME280;48766;50.446;18.128;2022-12-01T00:34:23;100290.26;;;1.29;69.93
62703;BME280;48766;50.446;18.128;2022-12-01T00:38:44;100289.23;;;1.30;66.40
62703;BME280;48766;50.446;18.128;2022-12-01T00:43:06;100287.51;;;1.31;67.13
62703;BME280;48766;50.446;18.128;2022-12-01T00:47:28;100285.77;;;1.30;67.53
62703;BME280;48766;50.446;18.128;2022-12-01T00:51:50;100283.70;;;1.31;67.37
62703;BME280;48766;50.446;18.128;2022-12-01T00:56:12;100281.96;;;1.30;66.99
62703;BME280;48766;50.446;18.128;2022-12-01T01:00:34;100281.27;;;1.32;65.94
62703;BME280;48766;50.446;18.128;2022-12-01T01:04:56;100281.36;;;1.33;67.60
62703;BME280;48766;50.446;18.128;2022-12-01T01:09:18;100281.02;;;1.37;65.92
62703;BME280;48766;50.446;18.128;2022-12-01T01:13:40;100280.88;;;1.35;73.58
62703;BME280;48766;50.446;18.128;2022-12-01T01:18:02;100281.37;;;1.39;65.98
62703;BME280;48766;50.446;18.128;2022-12-01T01:22:24;100280.77;;;1.41;65.58
62703;BME280;48766;50.446;18.128;2022-12-01T01:26:46;100281.27;;;1.41;67.86
62703;BME280;48766;50.446;18.128;2022-12-01T01:31:08;100281.55;;;1.39;67.87
62703;BME280;48766;50.446;18.128;2022-12-01T01:35:30;100282.11;;;1.33;68.82
62703;BME280;48766;50.446;18.128;2022-12-01T01:39:52;100282.03;;;1.30;66.90
62703;BME280;48766;50.446;18.128;2022-12-01T01:48:36;100280.19;;;1.22;66.64
62703;BME280;48766;50.446;18.128;2022-12-01T01:53:00;100279.32;;;1.18;67.42
62703;BME280;48766;50.446;18.128;2022-12-01T01:57:22;100278.17;;;1.15;67.27
62703;BME280;48766;50.446;18.128;2022-12-01T02:01:42;100277.40;;;1.12;67.77
62703;BME280;48766;50.446;18.128;2022-12-01T02:06:04;100275.37;;;1.08;69.21
62703;BME280;48766;50.446;18.128;2022-12-01T02:10:30;100273.58;;;1.07;67.57
62703;BME280;48766;50.446;18.128;2022-12-01T02:28:00;100264.18;;;1.03;69.86
62703;BME280;48766;50.446;18.128;2022-12-01T02:36:57;100255.43;;;1.00;67.38
62703;BME280;48766;50.446;18.128;2022-12-01T02:41:02;100252.04;;;1.01;67.51
62703;BME280;48766;50.446;18.128;2022-12-01T02:45:27;100248.90;;;1.01;68.43
62703;BME280;48766;50.446;18.128;2022-12-01T02:49:45;100245.48;;;1.03;66.94
62703;BME280;48766;50.446;18.128;2022-12-01T02:54:06;100241.09;;;1.02;71.12
62703;BME280;48766;50.446;18.128;2022-12-01T02:58:29;100236.91;;;1.05;66.21
62703;BME280;48766;50.446;18.128;2022-12-01T03:07:21;100230.70;;;1.11;66.87
62703;BME280;48766;50.446;18.128;2022-12-01T03:11:43;100228.05;;;1.14;66.37
62703;BME280;48766;50.446;18.128;2022-12-01T03:20:20;100224.61;;;1.23;66.60
62703;BME280;48766;50.446;18.128;2022-12-01T03:24:41;100222.66;;;1.27;69.00
62703;BME280;48766;50.446;18.128;2022-12-01T03:29:04;100221.34;;;1.33;66.55
62703;BME280;48766;50.446;18.128;2022-12-01T03:33:25;100220.12;;;1.36;72.73
62703;BME280;48766;50.446;18.128;2022-12-01T03:37:53;100218.75;;;1.40;66.81
62703;BME280;48766;50.446;18.128;2022-12-01T03:42:12;100216.46;;;1.43;66.20
62703;BME280;48766;50.446;18.128;2022-12-01T03:46:46;100215.19;;;1.46;67.09
62703;BME280;48766;50.446;18.128;2022-12-01T03:55:27;100211.45;;;1.51;68.24
62703;BME280;48766;50.446;18.128;2022-12-01T03:59:36;100209.66;;;1.54;66.49
62703;BME280;48766;50.446;18.128;2022-12-01T04:04:05;100209.19;;;1.53;74.85
62703;BME280;48766;50.446;18.128;2022-12-01T04:08:20;100208.54;;;1.56;66.84
62703;BME280;48766;50.446;18.128;2022-12-01T04:12:42;100207.45;;;1.59;66.00
62703;BME280;48766;50.446;18.128;2022-12-01T04:17:04;100207.26;;;1.61;66.53
62703;BME280;48766;50.446;18.128;2022-12-01T04:21:26;100205.88;;;1.63;66.21
62703;BME280;48766;50.446;18.128;2022-12-01T04:25:48;100204.88;;;1.63;67.54
62703;BME280;48766;50.446;18.128;2022-12-01T04:30:10;100201.70;;;1.66;66.08
62703;BME280;48766;50.446;18.128;2022-12-01T04:34:32;100198.32;;;1.66;70.37
62703;BME280;48766;50.446;18.128;2022-12-01T04:38:54;100195.22;;;1.69;66.74
62703;BME280;48766;50.446;18.128;2022-12-01T04:43:16;100193.36;;;1.70;66.30
62703;BME280;48766;50.446;18.128;2022-12-01T04:47:38;100191.35;;;1.72;66.92
62703;BME280;48766;50.446;18.128;2022-12-01T04:52:00;100190.56;;;1.73;66.58
62703;BME280;48766;50.446;18.128;2022-12-01T04:56:22;100190.02;;;1.72;68.20
62703;BME280;48766;50.446;18.128;2022-12-01T05:00:44;100190.52;;;1.71;68.12
62703;BME280;48766;50.446;18.128;2022-12-01T05:05:06;100191.72;;;1.67;69.76
62703;BME280;48766;50.446;18.128;2022-12-01T05:09:28;100192.86;;;1.64;68.16
62703;BME280;48766;50.446;18.128;2022-12-01T05:13:50;100195.97;;;1.56;74.72
62703;BME280;48766;50.446;18.128;2022-12-01T05:18:12;100198.35;;;1.53;68.07
62703;BME280;48766;50.446;18.128;2022-12-01T05:22:34;100199.80;;;1.49;68.64
62703;BME280;48766;50.446;18.128;2022-12-01T05:26:56;100201.56;;;1.44;69.08
62703;BME280;48766;50.446;18.128;2022-12-01T05:31:18;100204.27;;;1.41;68.96
62703;BME280;48766;50.446;18.128;2022-12-01T05:35:40;100205.97;;;1.36;69.58
62703;BME280;48766;50.446;18.128;2022-12-01T05:40:02;100206.58;;;1.34;69.09
62703;BME280;48766;50.446;18.128;2022-12-01T05:44:24;100206.45;;;1.30;73.88
62703;BME280;48766;50.446;18.128;2022-12-01T05:48:46;100205.31;;;1.28;69.51
62703;BME280;48766;50.446;18.128;2022-12-01T05:53:09;100204.22;;;1.25;68.88
62703;BME280;48766;50.446;18.128;2022-12-01T05:57:30;100203.59;;;1.23;69.76
62703;BME280;48766;50.446;18.128;2022-12-01T06:01:52;100203.41;;;1.22;70.62
62703;BME280;48766;50.446;18.128;2022-12-01T06:06:14;100204.69;;;1.18;70.71
62703;BME280;48766;50.446;18.128;2022-12-01T06:10:36;100206.69;;;1.18;69.54
62703;BME280;48766;50.446;18.128;2022-12-01T06:14:58;100209.12;;;1.17;72.40
62703;BME280;48766;50.446;18.128;2022-12-01T06:19:20;100210.82;;;1.18;70.18
62703;BME280;48766;50.446;18.128;2022-12-01T06:23:42;100214.00;;;1.17;76.13
62703;BME280;48766;50.446;18.128;2022-12-01T06:28:04;100215.89;;;1.20;69.08
62703;BME280;48766;50.446;18.128;2022-12-01T06:32:26;100217.90;;;1.23;68.71
62703;BME280;48766;50.446;18.128;2022-12-01T06:36:48;100220.00;;;1.26;69.54
62703;BME280;48766;50.446;18.128;2022-12-01T06:41:10;100222.02;;;1.30;68.67
62703;BME280;48766;50.446;18.128;2022-12-01T06:45:32;100225.40;;;1.33;70.88
62703;BME280;48766;50.446;18.128;2022-12-01T06:49:54;100229.49;;;1.36;69.45
62703;BME280;48766;50.446;18.128;2022-12-01T06:54:16;100232.96;;;1.36;76.71
62703;BME280;48766;50.446;18.128;2022-12-01T06:58:38;100235.47;;;1.40;74.49
62703;BME280;48766;50.446;18.128;2022-12-01T07:03:00;100238.15;;;1.43;71.18
62703;BME280;48766;50.446;18.128;2022-12-01T07:07:22;100240.83;;;1.47;69.86
62703;BME280;48766;50.446;18.128;2022-12-01T07:11:44;100242.55;;;1.50;69.31
62703;BME280;48766;50.446;18.128;2022-12-01T07:16:06;100245.86;;;1.50;69.89
62703;BME280;48766;50.446;18.128;2022-12-01T07:20:28;100248.33;;;1.54;68.83
62703;BME280;48766;50.446;18.128;2022-12-01T07:24:50;100250.56;;;1.57;71.50
62703;BME280;48766;50.446;18.128;2022-12-01T07:29:12;100250.97;;;1.62;68.29
62703;BME280;48766;50.446;18.128;2022-12-01T07:33:34;100251.45;;;1.65;73.56
62703;BME280;48766;50.446;18.128;2022-12-01T07:37:56;100250.53;;;1.70;69.62
62703;BME280;48766;50.446;18.128;2022-12-01T07:42:18;100250.30;;;1.73;68.42
62703;BME280;48766;50.446;18.128;2022-12-01T07:46:40;100250.58;;;1.77;68.45
62703;BME280;48766;50.446;18.128;2022-12-01T07:51:03;100251.31;;;1.82;68.03
62703;BME280;48766;50.446;18.128;2022-12-01T07:55:24;100250.61;;;1.87;70.01
62703;BME280;48766;50.446;18.128;2022-12-01T07:59:46;100249.78;;;1.93;68.70
62703;BME280;48766;50.446;18.128;2022-12-01T08:04:08;100250.03;;;1.95;75.21
62703;BME280;48766;50.446;18.128;2022-12-01T08:08:31;100250.64;;;2.00;67.87
62703;BME280;48766;50.446;18.128;2022-12-01T08:12:52;100250.75;;;2.03;67.42
62703;BME280;48766;50.446;18.128;2022-12-01T08:17:14;100250.76;;;2.07;68.39
62703;BME280;48766;50.446;18.128;2022-12-01T08:21:36;100250.70;;;2.10;69.54
62703;BME280;48766;50.446;18.128;2022-12-01T08:26:05;100251.36;;;2.10;68.03
62703;BME280;48766;50.446;18.128;2022-12-01T08:30:20;100252.72;;;2.15;66.74
62703;BME280;48766;50.446;18.128;2022-12-01T08:34:42;100253.23;;;2.19;70.14
62703;BME280;48766;50.446;18.128;2022-12-01T08:39:05;100254.00;;;2.23;66.96
62703;BME280;48766;50.446;18.128;2022-12-01T08:43:26;100253.49;;;2.25;69.13
62703;BME280;48766;50.446;18.128;2022-12-01T08:47:48;100255.16;;;2.28;68.78
62703;BME280;48766;50.446;18.128;2022-12-01T08:52:10;100254.78;;;2.29;67.90
62703;BME280;48766;50.446;18.128;2022-12-01T08:56:34;100254.99;;;2.29;68.32
62703;BME280;48766;50.446;18.128;2022-12-01T09:01:11;100254.88;;;2.30;68.04
62703;BME280;48766;50.446;18.128;2022-12-01T09:05:16;100255.13;;;2.31;68.42
62703;BME280;48766;50.446;18.128;2022-12-01T09:09:38;100255.70;;;2.33;68.78
62703;BME280;48766;50.446;18.128;2022-12-01T09:14:00;100255.69;;;2.30;73.84
62703;BME280;48766;50.446;18.128;2022-12-01T09:18:23;100255.04;;;2.30;71.12
62703;BME280;48766;50.446;18.128;2022-12-01T09:22:45;100254.12;;;2.29;68.09
62703;BME280;48766;50.446;18.128;2022-12-01T09:27:07;100253.00;;;2.28;70.64
62703;BME280;48766;50.446;18.128;2022-12-01T09:31:29;100251.15;;;2.27;69.35
62703;BME280;48766;50.446;18.128;2022-12-01T09:35:51;100249.78;;;2.25;71.04
62703;BME280;48766;50.446;18.128;2022-12-01T09:40:13;100247.63;;;2.25;69.64
62703;BME280;48766;50.446;18.128;2022-12-01T09:48:57;100243.03;;;2.25;68.13
62703;BME280;48766;50.446;18.128;2022-12-01T09:53:20;100241.50;;;2.26;69.78
62703;BME280;48766;50.446;18.128;2022-12-01T09:57:41;100239.76;;;2.27;70.87
62703;BME280;48766;50.446;18.128;2022-12-01T10:02:05;100236.94;;;2.26;71.08
62703;BME280;48766;50.446;18.128;2022-12-01T10:06:28;100234.01;;;2.22;71.05
62703;BME280;48766;50.446;18.128;2022-12-01T10:10:48;100231.61;;;2.22;70.89
62703;BME280;48766;50.446;18.128;2022-12-01T10:15:14;100229.66;;;2.20;72.28
62703;BME280;48766;50.446;18.128;2022-12-01T10:19:37;100227.17;;;2.20;68.32
62703;BME280;48766;50.446;18.128;2022-12-01T10:36:59;100215.58;;;2.15;70.37
62703;BME280;48766;50.446;18.128;2022-12-01T10:41:21;100213.75;;;2.15;68.58
62703;BME280;48766;50.446;18.128;2022-12-01T10:45:43;100212.39;;;2.14;69.29
62703;BME280;48766;50.446;18.128;2022-12-01T10:50:05;100210.18;;;2.14;70.22
62703;BME280;48766;50.446;18.128;2022-12-01T10:54:31;100207.73;;;2.13;72.25
62703;BME280;48766;50.446;18.128;2022-12-01T10:58:53;100205.88;;;2.14;68.69
62703;BME280;48766;50.446;18.128;2022-12-01T11:07:34;100203.39;;;2.14;68.22
62703;BME280;48766;50.446;18.128;2022-12-01T11:11:56;100203.02;;;2.16;71.59
62703;BME280;48766;50.446;18.128;2022-12-01T11:16:36;100202.14;;;2.15;70.27
62703;BME280;48766;50.446;18.128;2022-12-01T11:20:39;100200.74;;;2.16;72.66
62703;BME280;48766;50.446;18.128;2022-12-01T11:25:03;100198.58;;;2.14;73.19
62703;BME280;48766;50.446;18.128;2022-12-01T11:29:30;100197.13;;;2.14;71.65
62703;BME280;48766;50.446;18.128;2022-12-01T11:33:51;100195.04;;;2.10;74.78
62703;BME280;48766;50.446;18.128;2022-12-01T11:38:14;100192.88;;;2.10;70.65
62703;BME280;48766;50.446;18.128;2022-12-01T11:42:29;100190.89;;;2.10;69.15
62703;BME280;48766;50.446;18.128;2022-12-01T11:46:51;100188.53;;;2.10;70.06
62703;BME280;48766;50.446;18.128;2022-12-01T11:55:35;100185.77;;;2.13;69.96
62703;BME280;48766;50.446;18.128;2022-12-01T11:59:57;100186.16;;;2.16;67.58
62703;BME280;48766;50.446;18.128;2022-12-01T12:08:45;100185.49;;;2.18;68.88
62703;BME280;48766;50.446;18.128;2022-12-01T12:26:15;100185.92;;;2.19;69.66
62703;BME280;48766;50.446;18.128;2022-12-01T12:30:34;100186.54;;;2.20;69.36
62703;BME280;48766;50.446;18.128;2022-12-01T12:34:56;100186.75;;;2.19;70.11
62703;BME280;48766;50.446;18.128;2022-12-01T12:43:47;100187.23;;;2.18;71.27
62703;BME280;48766;50.446;18.128;2022-12-01T12:48:03;100186.91;;;2.18;69.79
62703;BME280;48766;50.446;18.128;2022-12-01T12:52:34;100187.12;;;2.17;68.04
62703;BME280;48766;50.446;18.128;2022-12-01T12:56:46;100186.61;;;2.16;69.08
62703;BME280;48766;50.446;18.128;2022-12-01T13:01:10;100187.77;;;2.16;68.32
62703;BME280;48766;50.446;18.128;2022-12-01T13:05:30;100188.47;;;2.15;70.06
62703;BME280;48766;50.446;18.128;2022-12-01T13:09:54;100190.04;;;2.14;69.90
62703;BME280;48766;50.446;18.128;2022-12-01T13:22:56;100190.41;;;2.10;68.18
62703;BME280;48766;50.446;18.128;2022-12-01T13:27:18;100190.48;;;2.10;67.60
62703;BME280;48766;50.446;18.128;2022-12-01T13:31:48;100189.56;;;2.09;67.79
62703;BME280;48766;50.446;18.128;2022-12-01T13:36:01;100189.72;;;2.06;68.94
62703;BME280;48766;50.446;18.128;2022-12-01T13:40:27;100190.92;;;2.07;67.02
62703;BME280;48766;50.446;18.128;2022-12-01T13:44:50;100191.74;;;2.07;69.47
62703;BME280;48766;50.446;18.128;2022-12-01T13:53:35;100195.23;;;2.07;69.36
62703;BME280;48766;50.446;18.128;2022-12-01T14:02:19;100195.01;;;2.06;68.47
62703;BME280;48766;50.446;18.128;2022-12-01T14:06:39;100194.87;;;2.03;68.30
62703;BME280;48766;50.446;18.128;2022-12-01T14:11:04;100195.21;;;2.03;66.46
62703;BME280;48766;50.446;18.128;2022-12-01T14:15:21;100195.95;;;2.03;68.44
62703;BME280;48766;50.446;18.128;2022-12-01T14:19:44;100196.04;;;2.04;67.51
62703;BME280;48766;50.446;18.128;2022-12-01T14:24:04;100196.48;;;2.01;72.71
62703;BME280;48766;50.446;18.128;2022-12-01T14:29:05;100197.71;;;2.04;66.95
62703;BME280;48766;50.446;18.128;2022-12-01T14:32:47;100198.91;;;2.05;67.42
62703;BME280;48766;50.446;18.128;2022-12-01T14:37:13;100199.83;;;2.06;67.22
62703;BME280;48766;50.446;18.128;2022-12-01T14:46:03;100200.66;;;2.06;67.93
62703;BME280;48766;50.446;18.128;2022-12-01T14:50:27;100201.45;;;2.07;67.80
62703;BME280;48766;50.446;18.128;2022-12-01T14:54:44;100201.81;;;2.05;70.59
62703;BME280;48766;50.446;18.128;2022-12-01T14:59:00;100200.41;;;2.06;66.92
62703;BME280;48766;50.446;18.128;2022-12-01T15:03:21;100200.16;;;2.06;66.31
62703;BME280;48766;50.446;18.128;2022-12-01T15:07:45;100199.55;;;2.08;66.46
62703;BME280;48766;50.446;18.128;2022-12-01T15:12:23;100197.56;;;2.08;66.77
62703;BME280;48766;50.446;18.128;2022-12-01T15:16:28;100196.72;;;2.07;67.21
62703;BME280;48766;50.446;18.128;2022-12-01T15:20:49;100196.23;;;2.07;66.67
62703;BME280;48766;50.446;18.128;2022-12-01T15:25:12;100195.85;;;2.06;67.90
62703;BME280;48766;50.446;18.128;2022-12-01T15:29:40;100195.36;;;2.06;66.68
62703;BME280;48766;50.446;18.128;2022-12-01T15:33:55;100195.50;;;2.02;71.83
62703;BME280;48766;50.446;18.128;2022-12-01T15:38:18;100194.62;;;2.03;68.58
62703;BME280;48766;50.446;18.128;2022-12-01T15:42:39;100194.75;;;2.02;67.97
62703;BME280;48766;50.446;18.128;2022-12-01T15:51:24;100196.58;;;2.12;67.31
62703;BME280;48766;50.446;18.128;2022-12-01T15:55:46;100196.94;;;2.16;67.38
62703;BME280;48766;50.446;18.128;2022-12-01T16:00:16;100196.28;;;2.19;67.39
62703;BME280;48766;50.446;18.128;2022-12-01T16:04:29;100195.00;;;2.21;70.92
62703;BME280;48766;50.446;18.128;2022-12-01T16:17:48;100194.53;;;2.28;67.52
62703;BME280;48766;50.446;18.128;2022-12-01T16:22:01;100194.78;;;2.28;68.46
62703;BME280;48766;50.446;18.128;2022-12-01T16:26:19;100194.14;;;2.23;67.68
62703;BME280;48766;50.446;18.128;2022-12-01T16:30:41;100193.88;;;2.22;66.79
62703;BME280;48766;50.446;18.128;2022-12-01T16:35:03;100192.22;;;2.19;68.98
62703;BME280;48766;50.446;18.128;2022-12-01T16:39:25;100190.67;;;2.17;67.45
62703;BME280;48766;50.446;18.128;2022-12-01T16:43:47;100189.03;;;2.11;72.41
62703;BME280;48766;50.446;18.128;2022-12-01T16:48:09;100188.32;;;2.09;69.07
62703;BME280;48766;50.446;18.128;2022-12-01T16:52:31;100187.19;;;2.07;66.87
62703;BME280;48766;50.446;18.128;2022-12-01T16:56:53;100187.75;;;2.03;67.43
62703;BME280;48766;50.446;18.128;2022-12-01T17:01:15;100188.61;;;2.01;69.04
62703;BME280;48766;50.446;18.128;2022-12-01T17:05:37;100189.72;;;1.99;69.92
62703;BME280;48766;50.446;18.128;2022-12-01T17:09:59;100191.24;;;1.97;70.40
62703;BME280;48766;50.446;18.128;2022-12-01T17:14:21;100192.42;;;1.92;72.20
62703;BME280;48766;50.446;18.128;2022-12-01T17:18:43;100193.61;;;1.90;69.14
62703;BME280;48766;50.446;18.128;2022-12-01T17:23:05;100193.92;;;1.87;68.04
62703;BME280;48766;50.446;18.128;2022-12-01T17:27:27;100194.53;;;1.85;67.71
62703;BME280;48766;50.446;18.128;2022-12-01T17:31:49;100194.81;;;1.83;68.67
62703;BME280;48766;50.446;18.128;2022-12-01T17:36:12;100194.50;;;1.81;68.38
62703;BME280;48766;50.446;18.128;2022-12-01T17:40:33;100194.92;;;1.80;69.07
62703;BME280;48766;50.446;18.128;2022-12-01T17:44:55;100193.67;;;1.78;71.26
62703;BME280;48766;50.446;18.128;2022-12-01T17:49:17;100193.16;;;1.77;69.46
62703;BME280;48766;50.446;18.128;2022-12-01T17:53:39;100192.53;;;1.75;71.30
62703;BME280;48766;50.446;18.128;2022-12-01T17:58:01;100191.32;;;1.74;70.13
62703;BME280;48766;50.446;18.128;2022-12-01T18:02:23;100190.65;;;1.73;68.43
62703;BME280;48766;50.446;18.128;2022-12-01T18:06:45;100189.78;;;1.72;66.69
62703;BME280;48766;50.446;18.128;2022-12-01T18:11:09;100190.40;;;1.73;67.41
62703;BME280;48766;50.446;18.128;2022-12-01T18:15:29;100191.10;;;1.72;68.30
62703;BME280;48766;50.446;18.128;2022-12-01T18:19:54;100191.77;;;1.72;66.43
62703;BME280;48766;50.446;18.128;2022-12-01T18:24:49;100196.37;;;1.74;68.98
62703;BME280;48766;50.446;18.128;2022-12-01T18:29:04;100195.06;;;1.74;67.21
62703;BME280;48766;50.446;18.128;2022-12-01T18:33:17;100194.90;;;1.71;72.67
62703;BME280;48766;50.446;18.128;2022-12-01T18:37:31;100194.14;;;1.74;66.60
62703;BME280;48766;50.446;18.128;2022-12-01T18:41:45;100194.02;;;1.75;68.12
62703;BME280;48766;50.446;18.128;2022-12-01T18:45:59;100193.16;;;1.74;67.05
62703;BME280;48766;50.446;18.128;2022-12-01T18:50:13;100193.61;;;1.76;67.72
62703;BME280;48766;50.446;18.128;2022-12-01T18:54:27;100192.82;;;1.74;68.51
62703;BME280;48766;50.446;18.128;2022-12-01T18:58:41;100191.53;;;1.75;66.26
62703;BME280;48766;50.446;18.128;2022-12-01T19:02:55;100190.32;;;1.73;70.62
62703;BME280;48766;50.446;18.128;2022-12-01T19:07:09;100189.25;;;1.74;67.82
62703;BME280;48766;50.446;18.128;2022-12-01T19:11:23;100187.41;;;1.73;67.18
62703;BME280;48766;50.446;18.128;2022-12-01T19:15:37;100185.58;;;1.70;67.30
62703;BME280;48766;50.446;18.128;2022-12-01T19:19:51;100183.17;;;1.69;66.20
62703;BME280;48766;50.446;18.128;2022-12-01T19:24:05;100180.80;;;1.68;69.13
62703;BME280;48766;50.446;18.128;2022-12-01T19:28:19;100179.61;;;1.69;69.24
62703;BME280;48766;50.446;18.128;2022-12-01T19:32:33;100178.40;;;1.68;66.87
62703;BME280;48766;50.446;18.128;2022-12-01T19:36:47;100177.00;;;1.68;66.96
62703;BME280;48766;50.446;18.128;2022-12-01T19:41:01;100176.08;;;1.67;68.92
62703;BME280;48766;50.446;18.128;2022-12-01T19:45:16;100174.81;;;1.64;68.98
62703;BME280;48766;50.446;18.128;2022-12-01T19:49:32;100174.49;;;1.64;67.05
62703;BME280;48766;50.446;18.128;2022-12-01T19:53:43;100173.60;;;1.62;71.04
62703;BME280;48766;50.446;18.128;2022-12-01T19:57:57;100173.36;;;1.62;66.56
62703;BME280;48766;50.446;18.128;2022-12-01T20:02:11;100172.39;;;1.61;66.72
62703;BME280;48766;50.446;18.128;2022-12-01T20:06:26;100172.39;;;1.60;68.29
62703;BME280;48766;50.446;18.128;2022-12-01T20:10:48;100171.66;;;1.61;70.79
62703;BME280;48766;50.446;18.128;2022-12-01T20:14:53;100170.88;;;1.65;67.63
62703;BME280;48766;50.446;18.128;2022-12-01T20:19:07;100169.71;;;1.69;66.65
62703;BME280;48766;50.446;18.128;2022-12-01T20:23:21;100168.91;;;1.67;71.46
62703;BME280;48766;50.446;18.128;2022-12-01T20:27:39;100167.85;;;1.69;67.32
62703;BME280;48766;50.446;18.128;2022-12-01T20:31:49;100168.27;;;1.70;66.72
62703;BME280;48766;50.446;18.128;2022-12-01T20:36:03;100169.24;;;1.67;67.26
62703;BME280;48766;50.446;18.128;2022-12-01T20:40:17;100168.61;;;1.64;66.86
62703;BME280;48766;50.446;18.128;2022-12-01T20:44:31;100168.63;;;1.62;68.25
62703;BME280;48766;50.446;18.128;2022-12-01T20:48:45;100168.50;;;1.60;68.29
62703;BME280;48766;50.446;18.128;2022-12-01T20:52:59;100167.33;;;1.58;71.13
62703;BME280;48766;50.446;18.128;2022-12-01T20:57:13;100165.47;;;1.59;66.49
62703;BME280;48766;50.446;18.128;2022-12-01T21:01:27;100164.68;;;1.60;66.27
62703;BME280;48766;50.446;18.128;2022-12-01T21:05:41;100163.95;;;1.61;67.43
62703;BME280;48766;50.446;18.128;2022-12-01T21:09:55;100164.33;;;1.62;66.60
62703;BME280;48766;50.446;18.128;2022-12-01T21:14:17;100163.61;;;1.61;69.36
62703;BME280;48766;50.446;18.128;2022-12-01T21:18:25;100164.03;;;1.60;68.12
62703;BME280;48766;50.446;18.128;2022-12-01T21:22:37;100164.14;;;1.58;67.33
62703;BME280;48766;50.446;18.128;2022-12-01T21:26:57;100163.67;;;1.57;68.87
62703;BME280;48766;50.446;18.128;2022-12-01T21:31:12;100163.70;;;1.55;68.40
62703;BME280;48766;50.446;18.128;2022-12-01T21:35:21;100164.92;;;1.51;67.79
62703;BME280;48766;50.446;18.128;2022-12-01T21:39:33;100166.53;;;1.50;68.54
62703;BME280;48766;50.446;18.128;2022-12-01T21:43:47;100168.41;;;1.46;71.15
62703;BME280;48766;50.446;18.128;2022-12-01T21:48:13;100170.29;;;1.45;68.92
62703;BME280;48766;50.446;18.128;2022-12-01T21:52:17;100171.69;;;1.42;67.70
62703;BME280;48766;50.446;18.128;2022-12-01T21:56:29;100172.88;;;1.40;67.85
62703;BME280;48766;50.446;18.128;2022-12-01T22:00:43;100173.57;;;1.39;68.58
62703;BME280;48766;50.446;18.128;2022-12-01T22:04:57;100173.75;;;1.35;69.32
62703;BME280;48766;50.446;18.128;2022-12-01T22:13:28;100172.99;;;1.33;72.26
62703;BME280;48766;50.446;18.128;2022-12-01T22:17:39;100172.17;;;1.33;68.64
62703;BME280;48766;50.446;18.128;2022-12-01T22:25:56;100171.84;;;1.03;69.47
62703;BME280;48766;50.446;18.128;2022-12-01T22:30:12;100169.89;;;1.12;66.75
62703;BME280;48766;50.446;18.128;2022-12-01T22:34:17;100169.11;;;1.14;72.06
62703;BME280;48766;50.446;18.128;2022-12-01T22:42:37;100165.61;;;1.15;68.06
62703;BME280;48766;50.446;18.128;2022-12-01T22:46:47;100163.62;;;1.15;67.95
62703;BME280;48766;50.446;18.128;2022-12-01T22:50:58;100160.66;;;1.16;66.89
62703;BME280;48766;50.446;18.128;2022-12-01T22:55:11;100157.75;;;1.15;69.40
62703;BME280;48766;50.446;18.128;2022-12-01T22:59:24;100155.77;;;1.16;68.38
62703;BME280;48766;50.446;18.128;2022-12-01T23:03:27;100154.19;;;1.15;67.97
62703;BME280;48766;50.446;18.128;2022-12-01T23:07:38;100151.23;;;1.14;67.55
62703;BME280;48766;50.446;18.128;2022-12-01T23:12:12;100147.71;;;1.12;69.15
62703;BME280;48766;50.446;18.128;2022-12-01T23:15:56;100143.02;;;1.10;69.12
62703;BME280;48766;50.446;18.128;2022-12-01T23:24:16;100134.74;;;1.04;72.48
62703;BME280;48766;50.446;18.128;2022-12-01T23:28:28;100132.51;;;1.05;68.66
62703;BME280;48766;50.446;18.128;2022-12-01T23:32:36;100130.51;;;1.04;67.82
62703;BME280;48766;50.446;18.128;2022-12-01T23:36:48;100128.80;;;1.02;68.68
62703;BME280;48766;50.446;18.128;2022-12-01T23:40:59;100127.76;;;1.01;70.08
62703;BME280;48766;50.446;18.128;2022-12-01T23:45:25;100125.98;;;0.97;71.19
62703;BME280;48766;50.446;18.128;2022-12-01T23:49:19;100123.17;;;0.96;67.50
62703;BME280;48766;50.446;18.128;2022-12-01T23:53:29;100122.05;;;0.96;66.64
62703;BME280;48766;50.446;18.128;2022-12-01T23:57:38;100121.38;;;0.95;68.96
